createdAt,value
2023-03-22T00:15:23.329Z,100487.22
2023-03-22T00:18:08.992Z,100482.50
2023-03-22T00:20:42.195Z,100479.19
2023-03-22T00:23:18.748Z,100480.41
2023-03-22T00:25:53.066Z,100474.66
2023-03-22T00:28:26.770Z,100475.78
2023-03-22T00:38:32.516Z,100456.72
2023-03-22T01:01:40.526Z,100453.19
2023-03-22T01:22:09.087Z,100429.50
2023-03-22T01:25:04.054Z,100432.88
2023-03-22T01:30:31.510Z,100427.25
2023-03-22T01:33:41.509Z,100417.50
2023-03-22T01:36:39.128Z,100413.75
2023-03-22T01:43:54.267Z,100410.47
2023-03-22T01:47:55.887Z,100403.44
2023-03-22T02:08:07.472Z,100368.09
2023-03-22T02:11:13.023Z,100372.78
2023-03-22T02:14:40.910Z,100364.88
2023-03-22T02:21:20.339Z,100369.28
2023-03-22T02:24:49.583Z,100366.81
2023-03-22T02:28:33.698Z,100370.22
2023-03-22T02:32:50.454Z,100366.34
2023-03-22T02:36:48.924Z,100357.13
2023-03-22T02:51:15.093Z,100338.38
2023-03-22T02:54:45.092Z,100336.34
2023-03-22T02:58:03.331Z,100336.47
2023-03-22T03:01:13.791Z,100334.38
2023-03-22T03:19:33.648Z,100325.00
2023-03-22T03:23:24.657Z,100312.81
2023-03-22T03:27:01.658Z,100304.09
2023-03-22T03:31:28.401Z,100314.91
2023-03-22T03:34:43.496Z,100304.13
2023-03-22T03:37:57.478Z,100304.88
2023-03-22T03:44:20.994Z,100297.88
2023-03-22T03:46:48.969Z,100294.91
2023-03-22T03:49:17.164Z,100298.22
2023-03-22T03:51:52.339Z,100298.16
2023-03-22T03:54:20.334Z,100298.72
2023-03-22T03:56:48.006Z,100298.22
2023-03-22T03:59:16.741Z,100306.31
2023-03-22T04:01:50.341Z,100293.25
2023-03-22T04:04:27.545Z,100286.34
2023-03-22T04:06:59.684Z,100295.28
2023-03-22T04:09:32.038Z,100291.69
2023-03-22T04:12:06.401Z,100291.63
2023-03-22T04:14:33.063Z,100298.25
2023-03-22T04:17:06.253Z,100291.78
2023-03-22T04:19:33.131Z,100283.72
2023-03-22T04:22:00.274Z,100283.16
2023-03-22T04:24:27.182Z,100286.38
2023-03-22T04:26:53.935Z,100284.91
2023-03-22T04:29:39.122Z,100282.72
2023-03-22T04:32:31.367Z,100274.03
2023-03-22T04:34:58.896Z,100280.69
2023-03-22T04:37:27.081Z,100275.41
2023-03-22T04:40:20.788Z,100277.44
2023-03-22T04:43:04.122Z,100275.22
2023-03-22T04:45:58.297Z,100271.97
2023-03-22T04:48:31.282Z,100266.63
2023-03-22T04:51:04.076Z,100269.00
2023-03-22T04:53:40.143Z,100262.09
2023-03-22T04:56:13.567Z,100261.66
2023-03-22T04:58:43.066Z,100265.34
2023-03-22T05:01:11.367Z,100260.75
2023-03-22T05:03:42.933Z,100261.25
2023-03-22T05:06:10.336Z,100258.72
2023-03-22T05:08:46.450Z,100255.78
2023-03-22T05:11:19.396Z,100256.09
2023-03-22T05:13:57.835Z,100246.50
2023-03-22T05:16:25.915Z,100253.50
2023-03-22T05:18:56.555Z,100259.69
2023-03-22T05:21:28.393Z,100258.66
2023-03-22T05:23:59.231Z,100262.81
2023-03-22T05:26:26.880Z,100256.22
2023-03-22T05:28:55.819Z,100260.56
2023-03-22T05:31:41.789Z,100261.13
2023-03-22T05:34:09.706Z,100261.19
2023-03-22T05:36:38.187Z,100264.81
2023-03-22T05:39:37.177Z,100267.03
2023-03-22T05:42:03.959Z,100263.47
2023-03-22T05:44:32.210Z,100270.75
2023-03-22T05:47:07.493Z,100269.19
2023-03-22T05:49:37.451Z,100263.72
2023-03-22T05:52:06.049Z,100270.19
2023-03-22T05:55:13.642Z,100266.44
2023-03-22T05:57:41.379Z,100259.78
2023-03-22T06:00:13.215Z,100261.88
2023-03-22T06:02:47.970Z,100259.09
2023-03-22T06:05:17.054Z,100256.47
2023-03-22T06:07:45.092Z,100256.56
2023-03-22T06:10:17.025Z,100262.97
2023-03-22T06:12:44.389Z,100256.00
2023-03-22T06:15:20.627Z,100258.97
2023-03-22T06:18:07.906Z,100253.84
2023-03-22T06:20:40.677Z,100243.69
2023-03-22T06:23:13.695Z,100249.88
2023-03-22T06:25:41.714Z,100238.69
2023-03-22T06:28:09.144Z,100237.66
2023-03-22T06:30:38.500Z,100249.88
2023-03-22T06:33:25.623Z,100250.19
2023-03-22T06:35:59.666Z,100250.31
2023-03-22T06:38:32.935Z,100257.09
2023-03-22T06:40:59.811Z,100245.53
2023-03-22T06:43:26.556Z,100237.47
2023-03-22T06:46:01.211Z,100255.47
2023-03-22T06:48:39.181Z,100251.50
2023-03-22T06:51:10.025Z,100253.88
2023-03-22T06:53:37.743Z,100257.41
2023-03-22T06:56:04.904Z,100255.81
2023-03-22T06:58:41.076Z,100258.13
2023-03-22T07:01:07.755Z,100256.75
2023-03-22T07:03:35.855Z,100259.28
2023-03-22T07:06:15.367Z,100248.88
2023-03-22T07:08:45.865Z,100254.72
2023-03-22T07:11:15.914Z,100252.34
2023-03-22T07:13:46.685Z,100251.66
2023-03-22T07:16:19.914Z,100247.88
2023-03-22T07:18:57.168Z,100246.31
2023-03-22T07:21:23.987Z,100239.69
2023-03-22T07:23:55.721Z,100243.72
2023-03-22T07:26:26.392Z,100240.59
2023-03-22T07:28:55.680Z,100233.16
2023-03-22T07:31:27.297Z,100239.16
2023-03-22T07:34:00.792Z,100231.06
2023-03-22T07:36:30.789Z,100226.91
2023-03-22T07:38:57.660Z,100224.09
2023-03-22T07:41:30.232Z,100223.66
2023-03-22T07:44:18.250Z,100216.09
2023-03-22T07:47:08.524Z,100221.63
2023-03-22T07:49:44.480Z,100219.97
2023-03-22T07:52:17.727Z,100219.19
2023-03-22T07:54:44.507Z,100209.44
2023-03-22T07:57:11.184Z,100205.63
2023-03-22T07:59:46.765Z,100196.16
2023-03-22T08:02:16.490Z,100188.38
2023-03-22T08:04:52.675Z,100189.97
2023-03-22T08:07:30.081Z,100179.47
2023-03-22T08:09:58.370Z,100175.31
2023-03-22T08:12:28.069Z,100167.69
2023-03-22T08:15:04.153Z,100155.25
2023-03-22T08:17:32.359Z,100164.63
2023-03-22T08:19:59.059Z,100153.75
2023-03-22T08:22:44.134Z,100149.72
2023-03-22T08:25:30.308Z,100148.06
2023-03-22T08:28:05.684Z,100143.28
2023-03-22T08:30:32.861Z,100137.94
2023-03-22T08:32:59.539Z,100133.25
2023-03-22T08:35:26.744Z,100122.19
2023-03-22T08:37:59.584Z,100121.78
2023-03-22T08:40:55.177Z,100111.03
2023-03-22T08:43:34.698Z,100102.50
2023-03-22T08:46:25.707Z,100117.03
2023-03-22T08:49:08.264Z,100109.31
2023-03-22T08:51:55.028Z,100113.81
2023-03-22T08:54:57.501Z,100104.09
2023-03-22T08:57:46.756Z,100114.50
2023-03-22T09:00:48.961Z,100097.75
2023-03-22T09:03:43.385Z,100099.50
2023-03-22T09:06:22.477Z,100094.56
2023-03-22T09:09:07.975Z,100103.28
2023-03-22T09:11:42.000Z,100090.84
2023-03-22T09:14:16.920Z,100088.66
2023-03-22T09:17:09.808Z,100074.91
2023-03-22T09:19:55.684Z,100084.47
2023-03-22T09:22:35.965Z,100088.72
2023-03-22T09:25:13.260Z,100088.38
2023-03-22T09:27:46.878Z,100078.56
2023-03-22T09:30:25.089Z,100076.94
2023-03-22T09:32:59.613Z,100086.13
2023-03-22T09:35:37.751Z,100076.41
2023-03-22T09:38:13.383Z,100082.44
2023-03-22T09:41:36.869Z,100079.53
2023-03-22T09:44:43.082Z,100063.66
2023-03-22T09:47:21.761Z,100066.88
2023-03-22T09:49:56.594Z,100068.28
2023-03-22T09:52:26.281Z,100060.97
2023-03-22T09:54:59.598Z,100048.84
2023-03-22T09:57:42.462Z,100055.13
2023-03-22T10:00:35.138Z,100051.94
2023-03-22T10:06:41.977Z,100050.25
2023-03-22T10:09:43.244Z,100047.38
2023-03-22T10:12:53.954Z,100048.56
2023-03-22T10:16:11.105Z,100049.28
2023-03-22T10:18:52.155Z,100045.88
2023-03-22T10:21:26.142Z,100033.63
2023-03-22T10:24:19.960Z,100037.06
2023-03-22T10:29:39.459Z,100031.28
2023-03-22T10:32:34.493Z,100045.09
2023-03-22T10:35:04.464Z,100053.94
2023-03-22T10:37:39.051Z,100040.44
2023-03-22T10:40:25.015Z,100042.03
2023-03-22T10:43:05.767Z,100041.53
2023-03-22T10:45:37.250Z,100050.03
2023-03-22T10:48:19.259Z,100050.34
2023-03-22T10:51:01.693Z,100033.91
2023-03-22T10:53:37.696Z,100040.28
2023-03-22T10:56:16.970Z,100042.06
2023-03-22T10:59:00.969Z,100041.19
2023-03-22T11:01:35.114Z,100046.88
2023-03-22T11:04:22.647Z,100047.69
2023-03-22T11:07:07.202Z,100030.03
2023-03-22T11:09:50.518Z,100034.88
2023-03-22T11:12:30.512Z,100031.47
2023-03-22T11:15:11.469Z,100055.00
2023-03-22T11:17:44.408Z,100039.44
2023-03-22T11:20:26.396Z,100040.53
2023-03-22T11:23:24.631Z,100048.78
2023-03-22T11:26:08.176Z,100050.31
2023-03-22T11:28:54.097Z,100050.75
2023-03-22T11:31:23.020Z,100052.38
2023-03-22T11:34:23.627Z,100051.66
2023-03-22T11:37:18.122Z,100046.50
2023-03-22T11:40:20.327Z,100044.69
2023-03-22T11:43:02.516Z,100055.00
2023-03-22T11:45:45.799Z,100051.97
2023-03-22T11:48:26.828Z,100057.22
2023-03-22T11:51:19.001Z,100052.66
2023-03-22T11:54:06.328Z,100047.00
2023-03-22T11:56:37.325Z,100053.94
2023-03-22T11:59:36.844Z,100043.09
2023-03-22T12:02:18.543Z,100054.38
2023-03-22T12:04:53.507Z,100046.59
2023-03-22T12:07:40.694Z,100040.16
2023-03-22T12:10:23.399Z,100027.88
2023-03-22T12:13:04.643Z,100034.59
2023-03-22T12:16:22.269Z,100026.78
2023-03-22T12:19:16.433Z,100036.69
2023-03-22T12:22:05.138Z,100038.84
2023-03-22T12:24:41.775Z,100028.09
2023-03-22T12:27:41.546Z,100029.66
2023-03-22T12:30:43.616Z,100035.56
2023-03-22T12:36:12.395Z,100031.19
2023-03-22T12:39:13.952Z,100032.66
2023-03-22T12:42:05.383Z,100031.75
2023-03-22T12:45:04.072Z,100028.88
2023-03-22T12:47:46.762Z,100018.72
2023-03-22T12:50:40.646Z,100018.97
2023-03-22T12:53:20.879Z,100016.34
2023-03-22T12:55:51.886Z,100017.78
2023-03-22T12:58:27.100Z,100024.94
2023-03-22T13:01:23.998Z,100021.56
2023-03-22T13:04:01.100Z,100023.66
2023-03-22T13:06:48.638Z,100028.19
2023-03-22T13:09:45.373Z,100037.63
2023-03-22T13:12:18.392Z,100041.59
2023-03-22T13:14:56.466Z,100032.16
2023-03-22T13:17:42.643Z,100038.31
2023-03-22T13:20:12.430Z,100043.13
2023-03-22T13:22:49.775Z,100053.84
2023-03-22T13:25:20.165Z,100058.25
2023-03-22T13:28:06.769Z,100057.09
2023-03-22T13:31:05.654Z,100069.66
2023-03-22T13:33:41.013Z,100052.44
2023-03-22T13:36:34.659Z,100059.22
2023-03-22T13:39:11.936Z,100056.16
2023-03-22T13:41:55.368Z,100038.63
2023-03-22T13:45:01.311Z,100051.41
2023-03-22T13:47:46.029Z,100041.47
2023-03-22T13:50:40.131Z,100037.91
2023-03-22T13:53:44.740Z,100038.97
2023-03-22T13:57:00.561Z,100042.81
2023-03-22T14:00:33.257Z,100040.28
2023-03-22T14:03:32.555Z,100034.34
2023-03-22T14:09:47.355Z,100040.91
2023-03-22T14:12:47.969Z,100050.91
2023-03-22T14:15:31.820Z,100050.88
2023-03-22T14:18:31.737Z,100067.59
2023-03-22T14:21:19.575Z,100053.31
